Time;durP1;ratioP1;P1;durP2;ratioP2;P2;SDS_P1;SDS_P2;PMS_P1;PMS_P2;Temp;Humidity;BMP_temperature;BMP_pressure;BME280_temperature;BME280_humidity;BME280_pressure;Samples;Min_cycle;Max_cycle;Signal;HPM_P1;HPM_P2
2022/07/10 00:00:31;;;;;;;9.43;2.30;;;15.10;99.90;;;;;;5064925;28;20114;-63
2022/07/10 00:02:58;;;;;;;7.72;1.90;;;15.10;99.90;;;;;;5069421;28;20060;-63
2022/07/10 00:05:25;;;;;;;6.50;1.70;;;15.10;99.90;;;;;;5069778;28;20048;-62
2022/07/10 00:07:51;;;;;;;6.97;2.08;;;15.10;99.90;;;;;;5070269;28;20149;-62
2022/07/10 00:10:18;;;;;;;9.82;2.08;;;15.00;99.90;;;;;;5068354;28;20051;-63
2022/07/10 00:12:45;;;;;;;6.90;1.60;;;15.00;99.90;;;;;;5068991;28;20052;-62
2022/07/10 00:15:12;;;;;;;6.28;1.85;;;15.00;99.90;;;;;;5069977;28;20076;-62
2022/07/10 00:17:39;;;;;;;8.60;2.10;;;14.90;99.90;;;;;;5070097;28;20047;-63
2022/07/10 00:20:06;;;;;;;6.88;2.00;;;14.80;99.90;;;;;;5059945;28;20124;-62
2022/07/10 00:22:34;;;;;;;7.97;2.10;;;14.80;99.90;;;;;;5066075;28;20119;-62
2022/07/10 00:25:01;;;;;;;8.43;1.88;;;14.70;99.90;;;;;;5065760;28;20089;-63
2022/07/10 00:27:27;;;;;;;6.40;1.70;;;14.70;99.90;;;;;;5069793;28;20060;-63
2022/07/10 00:29:52;;;;;;;13.73;1.88;;;14.60;99.90;;;;;;5069309;28;20040;-62
2022/07/10 00:32:18;;;;;;;5.50;1.80;;;14.70;99.90;;;;;;5069323;28;20486;-62
2022/07/10 00:34:44;;;;;;;7.68;1.95;;;14.70;99.90;;;;;;5070025;28;20374;-62
2022/07/10 00:37:10;;;;;;;7.47;2.15;;;14.70;99.90;;;;;;5063786;28;20047;-62
2022/07/10 00:39:36;;;;;;;7.22;1.83;;;14.70;99.90;;;;;;5068194;28;20083;-63
2022/07/10 00:42:10;;;;;;;6.78;2.05;;;14.80;99.90;;;;;;5067687;28;20174;-63
2022/07/10 00:44:36;;;;;;;9.73;1.88;;;14.80;99.90;;;;;;5068581;28;20052;-64
2022/07/10 00:47:07;;;;;;;10.30;2.17;;;14.80;99.90;;;;;;5069897;28;20051;-63
2022/07/10 00:49:33;;;;;;;10.30;2.10;;;14.80;99.90;;;;;;5068422;28;20070;-62
2022/07/10 00:52:02;;;;;;;11.57;2.38;;;14.70;99.90;;;;;;5068419;28;20213;-63
2022/07/10 00:54:30;;;;;;;8.48;2.17;;;14.70;99.90;;;;;;5064882;28;20057;-62
2022/07/10 00:56:56;;;;;;;10.95;2.75;;;14.70;99.90;;;;;;5068588;28;20120;-62
2022/07/10 00:59:23;;;;;;;11.60;2.40;;;14.60;99.90;;;;;;5069102;28;20052;-63
2022/07/10 01:01:49;;;;;;;10.20;2.13;;;14.60;99.90;;;;;;5068284;28;20427;-62
2022/07/10 01:04:15;;;;;;;9.65;2.25;;;14.60;99.90;;;;;;5068679;28;20040;-65
2022/07/10 01:06:41;;;;;;;9.70;2.00;;;14.60;99.90;;;;;;5069880;28;20044;-63
2022/07/10 01:09:07;;;;;;;9.02;2.30;;;14.60;99.90;;;;;;5074361;28;20490;-62
2022/07/10 01:11:34;;;;;;;7.93;1.90;;;14.60;99.90;;;;;;5073613;28;20044;-62
2022/07/10 01:14:03;;;;;;;8.15;2.10;;;14.60;99.90;;;;;;5064240;28;20567;-62
2022/07/10 01:16:33;;;;;;;8.13;2.00;;;14.60;99.90;;;;;;5072389;28;20044;-62
2022/07/10 01:18:59;;;;;;;10.55;2.42;;;14.60;99.90;;;;;;5073592;28;20049;-63
2022/07/10 01:21:33;;;;;;;12.27;1.90;;;14.60;99.90;;;;;;5072062;28;20652;-63
2022/07/10 01:23:59;;;;;;;6.60;1.98;;;14.60;99.90;;;;;;5073615;28;20143;-62
2022/07/10 01:26:26;;;;;;;6.80;1.98;;;14.60;99.90;;;;;;5073262;28;20045;-62
2022/07/10 01:28:52;;;;;;;10.68;2.35;;;14.60;99.90;;;;;;5067085;28;20506;-62
2022/07/10 01:31:19;;;;;;;7.75;1.98;;;14.60;99.90;;;;;;5063990;28;20494;-64
2022/07/10 01:33:46;;;;;;;6.10;1.80;;;14.60;99.90;;;;;;5072294;28;20041;-63
2022/07/10 01:36:13;;;;;;;7.63;1.65;;;14.60;99.90;;;;;;5072658;28;20036;-62
2022/07/10 01:38:40;;;;;;;6.43;1.48;;;14.60;99.90;;;;;;5071638;28;20181;-63
2022/07/10 01:41:06;;;;;;;7.40;2.28;;;14.60;99.90;;;;;;5070184;28;20040;-62
2022/07/10 01:43:32;;;;;;;6.32;1.60;;;14.60;99.90;;;;;;5067179;28;20050;-62
2022/07/10 01:45:57;;;;;;;9.13;1.70;;;14.60;99.90;;;;;;5066891;28;20080;-62
2022/07/10 01:48:23;;;;;;;8.05;1.95;;;14.50;99.90;;;;;;5071782;28;20170;-63
2022/07/10 01:50:49;;;;;;;7.43;1.88;;;14.50;99.90;;;;;;5085048;28;20048;-62
2022/07/10 01:53:14;;;;;;;9.00;2.22;;;14.50;99.90;;;;;;5072061;28;20040;-63
2022/07/10 01:55:40;;;;;;;6.95;1.50;;;14.50;99.90;;;;;;5072473;28;20116;-62
2022/07/10 01:58:06;;;;;;;7.65;1.70;;;14.50;99.90;;;;;;5073033;28;20559;-62
2022/07/10 02:00:31;;;;;;;5.97;1.80;;;14.50;99.90;;;;;;5072220;28;20541;-62
2022/07/10 02:05:41;;;;;;;8.27;1.70;;;14.40;99.90;;;;;;5072580;28;20119;-62
2022/07/10 02:08:07;;;;;;;8.43;1.98;;;14.40;99.90;;;;;;5072143;28;20462;-63
2022/07/10 02:10:33;;;;;;;8.95;1.70;;;14.40;99.90;;;;;;5071304;28;20182;-62
2022/07/10 02:12:59;;;;;;;12.45;2.10;;;14.40;99.90;;;;;;5072008;28;20055;-61
2022/07/10 02:15:24;;;;;;;7.85;2.03;;;14.40;99.90;;;;;;5072686;28;20072;-63
2022/07/10 02:17:50;;;;;;;6.63;1.60;;;14.40;99.90;;;;;;5050691;28;20041;-61
2022/07/10 02:20:16;;;;;;;6.70;1.75;;;14.40;99.90;;;;;;5071195;28;20102;-61
2022/07/10 02:22:42;;;;;;;6.45;1.65;;;14.30;99.90;;;;;;5072258;28;20378;-61
2022/07/10 02:25:08;;;;;;;8.35;1.83;;;14.30;99.90;;;;;;5071465;28;20066;-61
2022/07/10 02:27:33;;;;;;;5.28;1.77;;;14.20;99.90;;;;;;5067903;28;20529;-61
2022/07/10 02:29:59;;;;;;;7.80;2.03;;;14.20;99.90;;;;;;5069264;28;20044;-61
2022/07/10 02:32:25;;;;;;;9.48;1.90;;;14.20;99.90;;;;;;5071019;28;20040;-62
2022/07/10 02:34:51;;;;;;;11.32;2.33;;;14.10;99.90;;;;;;5071375;28;20040;-62
2022/07/10 02:37:16;;;;;;;6.78;2.00;;;14.10;99.90;;;;;;5071009;28;20139;-62
2022/07/10 02:39:42;;;;;;;8.75;2.17;;;14.10;99.90;;;;;;5071558;28;20040;-61
2022/07/10 02:42:08;;;;;;;7.78;2.28;;;14.10;99.90;;;;;;5071903;28;20037;-62
2022/07/10 02:44:33;;;;;;;9.38;2.20;;;14.10;99.90;;;;;;5070891;28;20056;-62
2022/07/10 02:46:59;;;;;;;10.50;2.25;;;14.10;99.90;;;;;;5074672;28;20182;-62
2022/07/10 02:49:25;;;;;;;10.35;1.85;;;14.10;99.90;;;;;;5061707;28;20519;-62
2022/07/10 02:51:50;;;;;;;8.07;1.88;;;14.20;99.90;;;;;;5070491;28;20040;-61
2022/07/10 02:54:16;;;;;;;8.18;1.88;;;14.20;99.90;;;;;;5070877;28;20079;-61
2022/07/10 02:56:42;;;;;;;7.03;1.73;;;14.20;99.90;;;;;;5071531;28;20366;-62
2022/07/10 02:59:08;;;;;;;8.27;1.92;;;14.30;99.90;;;;;;5066604;28;20052;-63
2022/07/10 03:01:33;;;;;;;7.00;2.00;;;14.30;99.90;;;;;;5070690;28;20538;-61
2022/07/10 03:04:01;;;;;;;9.73;1.65;;;14.30;99.90;;;;;;5070683;28;20080;-61
2022/07/10 03:06:27;;;;;;;7.40;1.70;;;14.20;99.90;;;;;;5066414;28;20179;-62
2022/07/10 03:08:52;;;;;;;6.85;1.65;;;14.20;99.90;;;;;;5070257;28;20506;-62
2022/07/10 03:11:18;;;;;;;8.95;1.77;;;14.20;99.90;;;;;;5069871;28;20047;-62
2022/07/10 03:13:44;;;;;;;6.70;1.92;;;14.30;99.90;;;;;;5070132;28;20051;-62
2022/07/10 03:16:10;;;;;;;6.80;2.13;;;14.20;99.90;;;;;;5069760;28;20074;-62
2022/07/10 03:18:36;;;;;;;7.72;2.05;;;14.20;99.90;;;;;;5069564;28;20032;-64
2022/07/10 03:21:02;;;;;;;11.88;2.17;;;14.20;99.90;;;;;;5071448;28;20052;-62
2022/07/10 03:23:27;;;;;;;6.85;1.98;;;14.20;99.90;;;;;;5065229;28;20067;-62
2022/07/10 03:25:53;;;;;;;8.63;2.05;;;14.20;99.90;;;;;;5069759;28;20036;-62
2022/07/10 03:28:19;;;;;;;8.27;1.90;;;14.20;99.90;;;;;;5070750;28;20112;-63
2022/07/10 03:30:44;;;;;;;9.43;2.33;;;14.20;99.90;;;;;;5068738;28;20055;-62
2022/07/10 03:33:10;;;;;;;6.22;1.75;;;14.30;99.90;;;;;;5068241;28;20055;-62
2022/07/10 03:35:36;;;;;;;9.60;1.85;;;14.30;99.90;;;;;;5070373;28;20049;-65
2022/07/10 03:38:02;;;;;;;8.45;1.98;;;14.30;99.90;;;;;;5069677;28;20044;-63
2022/07/10 03:40:28;;;;;;;8.80;1.80;;;14.40;99.90;;;;;;5070870;28;20064;-62
2022/07/10 03:42:53;;;;;;;9.90;2.05;;;14.40;99.90;;;;;;5069642;28;20127;-63
2022/07/10 03:45:19;;;;;;;9.75;1.90;;;14.50;99.90;;;;;;5053350;28;20087;-63
2022/07/10 03:47:45;;;;;;;10.30;2.25;;;14.60;99.90;;;;;;5069184;28;20047;-62
2022/07/10 03:50:11;;;;;;;7.55;1.75;;;14.60;99.90;;;;;;5071142;28;20037;-62
2022/07/10 03:52:36;;;;;;;9.07;1.90;;;14.60;99.90;;;;;;5052764;28;20122;-62
2022/07/10 03:55:02;;;;;;;12.30;2.60;;;14.60;99.90;;;;;;5061477;28;20053;-63
2022/07/10 04:00:13;;;;;;;9.25;2.30;;;14.70;99.90;;;;;;5068933;28;20048;-62
2022/07/10 04:02:39;;;;;;;11.90;2.67;;;14.80;99.90;;;;;;5069980;28;20053;-64
2022/07/10 04:05:09;;;;;;;8.68;2.15;;;14.80;99.90;;;;;;5063661;28;20036;-63
2022/07/10 04:07:36;;;;;;;11.70;2.67;;;14.80;99.90;;;;;;5069406;28;20056;-67
2022/07/10 04:10:02;;;;;;;10.95;2.58;;;14.80;99.90;;;;;;5070010;28;20041;-63
2022/07/10 04:12:28;;;;;;;13.93;2.42;;;14.80;99.90;;;;;;5070314;28;20123;-63
2022/07/10 04:14:54;;;;;;;8.85;2.78;;;14.80;99.90;;;;;;5067844;28;20131;-62
2022/07/10 04:17:20;;;;;;;12.13;2.60;;;14.80;99.90;;;;;;5069166;28;20048;-63
2022/07/10 04:19:46;;;;;;;6.50;1.92;;;14.90;99.90;;;;;;5069627;28;20505;-63
2022/07/10 04:22:12;;;;;;;13.93;2.35;;;14.90;99.90;;;;;;5069652;28;20470;-62
2022/07/10 04:24:38;;;;;;;11.65;2.50;;;14.90;99.90;;;;;;5069710;28;20108;-62
2022/07/10 04:27:04;;;;;;;6.32;2.00;;;14.90;99.90;;;;;;5068192;28;20871;-64
2022/07/10 04:29:31;;;;;;;12.02;2.35;;;15.10;99.90;;;;;;5065754;28;20166;-62
2022/07/10 04:31:57;;;;;;;9.30;2.40;;;14.90;99.90;;;;;;5069708;28;20083;-62
2022/07/10 04:34:23;;;;;;;8.38;2.25;;;15.00;99.90;;;;;;5068798;28;20052;-63
2022/07/10 04:36:48;;;;;;;11.88;2.05;;;15.00;99.90;;;;;;5037021;28;20102;-63
2022/07/10 04:39:14;;;;;;;9.35;2.10;;;15.00;99.90;;;;;;5069521;28;20056;-63
2022/07/10 04:41:40;;;;;;;11.13;2.38;;;15.00;99.90;;;;;;5070048;28;20064;-62
2022/07/10 04:44:05;;;;;;;9.52;2.55;;;15.00;99.90;;;;;;5069135;28;20050;-62
2022/07/10 04:46:31;;;;;;;8.10;2.30;;;15.00;99.90;;;;;;5051968;28;20055;-62
2022/07/10 04:48:57;;;;;;;11.82;2.88;;;15.00;99.90;;;;;;5068472;28;20040;-62
2022/07/10 04:51:23;;;;;;;10.15;2.08;;;15.10;99.90;;;;;;5066190;28;20129;-62
2022/07/10 04:53:49;;;;;;;10.02;2.17;;;15.10;99.90;;;;;;5054881;28;20053;-62
2022/07/10 04:56:15;;;;;;;7.38;2.17;;;15.10;99.90;;;;;;5057902;28;20059;-62
2022/07/10 04:58:41;;;;;;;7.40;1.77;;;15.10;99.90;;;;;;5060880;28;20058;-63
2022/07/10 05:01:07;;;;;;;11.18;2.92;;;15.10;99.90;;;;;;5057913;28;20060;-61
2022/07/10 05:03:32;;;;;;;5.78;1.98;;;15.10;99.90;;;;;;5063186;28;20041;-62
2022/07/10 05:05:58;;;;;;;9.10;1.80;;;15.10;99.90;;;;;;5055698;28;20063;-62
2022/07/10 05:08:24;;;;;;;6.10;1.70;;;15.20;99.90;;;;;;5060722;28;20037;-61
2022/07/10 05:10:49;;;;;;;12.23;2.45;;;15.20;99.90;;;;;;5069173;28;20037;-63
2022/07/10 05:13:15;;;;;;;10.90;2.10;;;15.30;99.90;;;;;;5069297;28;20409;-61
2022/07/10 05:15:41;;;;;;;7.13;1.67;;;15.40;99.90;;;;;;5033483;28;20083;-62
2022/07/10 05:18:06;;;;;;;8.23;1.88;;;15.30;99.90;;;;;;5068833;28;20536;-62
2022/07/10 05:20:33;;;;;;;7.95;1.90;;;15.30;99.90;;;;;;5051683;28;20033;-62
2022/07/10 05:22:59;;;;;;;8.00;1.65;;;15.30;99.90;;;;;;5052835;28;20513;-62
2022/07/10 05:25:26;;;;;;;6.82;2.22;;;15.40;99.90;;;;;;5069532;28;20044;-62
2022/07/10 05:27:52;;;;;;;8.95;2.20;;;15.40;99.90;;;;;;5048265;28;20064;-64
2022/07/10 05:30:18;;;;;;;9.38;2.53;;;15.40;99.90;;;;;;5068525;28;20079;-61
2022/07/10 05:32:45;;;;;;;9.45;2.38;;;15.50;99.90;;;;;;5065879;28;20064;-62
2022/07/10 05:35:11;;;;;;;12.80;2.50;;;15.50;99.90;;;;;;5068677;28;20155;-63
2022/07/10 05:37:37;;;;;;;9.63;2.00;;;15.50;99.90;;;;;;5069272;28;20438;-62
2022/07/10 05:40:03;;;;;;;6.25;1.70;;;15.50;99.90;;;;;;5064460;28;20051;-62
2022/07/10 05:42:29;;;;;;;9.05;1.90;;;15.60;99.90;;;;;;5069086;28;20047;-62
2022/07/10 05:44:55;;;;;;;8.20;1.77;;;15.60;99.90;;;;;;5064166;28;20131;-61
2022/07/10 05:47:20;;;;;;;8.38;1.80;;;15.70;99.90;;;;;;5069038;28;20052;-61
2022/07/10 05:49:46;;;;;;;8.77;1.90;;;15.70;99.90;;;;;;5067297;28;20040;-62
2022/07/10 05:52:12;;;;;;;8.73;2.00;;;15.70;99.90;;;;;;5060641;28;20056;-62
2022/07/10 05:54:38;;;;;;;6.32;1.90;;;15.70;99.90;;;;;;5072746;28;20105;-63
2022/07/10 05:57:04;;;;;;;8.25;2.13;;;15.70;99.90;;;;;;5071054;28;20052;-62
2022/07/10 05:59:34;;;;;;;7.72;2.00;;;15.70;99.90;;;;;;5067776;28;20140;-63
2022/07/10 06:02:01;;;;;;;7.50;2.03;;;15.70;99.90;;;;;;5072898;28;20135;-61
2022/07/10 06:04:26;;;;;;;6.95;1.80;;;15.60;99.90;;;;;;5072808;28;20088;-61
2022/07/10 06:06:52;;;;;;;6.40;1.70;;;15.60;99.90;;;;;;5072504;28;20060;-63
2022/07/10 06:09:18;;;;;;;5.30;1.52;;;15.60;99.90;;;;;;5071442;28;20055;-62
2022/07/10 06:11:46;;;;;;;9.75;1.80;;;15.60;99.90;;;;;;5071432;28;20816;-61
2022/07/10 06:14:14;;;;;;;6.80;1.70;;;15.60;99.90;;;;;;5072172;28;20114;-61
2022/07/10 06:16:40;;;;;;;9.57;2.00;;;15.60;99.90;;;;;;5071312;28;20041;-62
2022/07/10 06:19:06;;;;;;;7.65;2.10;;;15.60;99.90;;;;;;5064149;28;20531;-62
2022/07/10 06:21:31;;;;;;;6.22;2.10;;;15.70;99.90;;;;;;5070165;28;20085;-62
2022/07/10 06:23:57;;;;;;;9.48;2.00;;;15.70;99.90;;;;;;5072274;28;20091;-64
2022/07/10 06:26:23;;;;;;;7.00;2.38;;;15.80;99.90;;;;;;5067760;28;20096;-62
2022/07/10 06:28:49;;;;;;;10.27;2.40;;;15.70;99.90;;;;;;5070849;28;20056;-62
2022/07/10 06:31:14;;;;;;;7.40;2.10;;;15.80;99.90;;;;;;5071168;28;20040;-62
2022/07/10 06:33:40;;;;;;;7.13;2.10;;;15.80;99.90;;;;;;5072562;28;20120;-62
2022/07/10 06:36:06;;;;;;;8.75;2.30;;;15.80;99.90;;;;;;5070532;28;20044;-62
2022/07/10 06:38:32;;;;;;;7.55;1.90;;;15.70;99.90;;;;;;5071618;28;20393;-63
2022/07/10 06:40:58;;;;;;;7.95;2.35;;;15.70;99.90;;;;;;5069890;28;20123;-62
2022/07/10 06:43:23;;;;;;;6.78;2.08;;;15.60;99.90;;;;;;5070601;28;20052;-62
2022/07/10 06:45:49;;;;;;;7.88;1.80;;;15.60;99.90;;;;;;5072304;28;20071;-62
2022/07/10 06:48:15;;;;;;;7.03;1.63;;;15.50;99.90;;;;;;5071298;28;20448;-62
2022/07/10 06:50:41;;;;;;;8.40;2.20;;;15.50;99.90;;;;;;5054255;28;20041;-62
2022/07/10 06:53:07;;;;;;;12.95;2.35;;;15.50;99.90;;;;;;5065564;28;20052;-63
2022/07/10 06:55:33;;;;;;;7.35;1.85;;;15.50;99.90;;;;;;5071790;28;20106;-61
2022/07/10 06:57:59;;;;;;;6.78;1.90;;;15.60;99.90;;;;;;5071713;28;20064;-62
2022/07/10 07:00:26;;;;;;;9.95;2.05;;;15.60;99.90;;;;;;5069538;28;20076;-62
2022/07/10 07:02:52;;;;;;;6.03;1.65;;;15.70;99.90;;;;;;5067940;28;20048;-62
2022/07/10 07:05:18;;;;;;;7.35;1.98;;;15.70;99.90;;;;;;5062308;28;20090;-62
2022/07/10 07:07:43;;;;;;;8.30;2.08;;;15.80;99.90;;;;;;5064991;28;20048;-63
2022/07/10 07:10:10;;;;;;;8.43;2.05;;;15.90;99.90;;;;;;5046578;28;20048;-62
2022/07/10 07:12:36;;;;;;;8.65;2.00;;;15.90;99.90;;;;;;5063203;28;20256;-62
2022/07/10 07:15:02;;;;;;;6.82;1.60;;;15.90;99.90;;;;;;5067057;28;20044;-62
2022/07/10 07:17:34;;;;;;;4.15;1.40;;;15.90;99.90;;;;;;5058782;28;20139;-63
2022/07/10 07:25:29;;;;;;;7.45;1.60;;;16.20;99.90;;;;;;5059902;28;20045;-62
2022/07/10 07:27:55;;;;;;;5.15;1.73;;;16.20;99.90;;;;;;5054893;28;20049;-62
2022/07/10 07:30:21;;;;;;;3.60;1.30;;;16.20;99.90;;;;;;5058550;28;20474;-63
2022/07/10 07:32:47;;;;;;;6.97;1.70;;;16.20;99.90;;;;;;5062048;28;20458;-62
2022/07/10 07:35:14;;;;;;;8.18;1.77;;;16.10;99.90;;;;;;5064696;28;20043;-63
2022/07/10 07:37:45;;;;;;;3.10;1.20;;;16.00;99.90;;;;;;5060165;28;20052;-62
2022/07/10 07:40:14;;;;;;;7.28;1.58;;;15.90;99.90;;;;;;5063446;28;20124;-66
2022/07/10 07:42:40;;;;;;;6.20;1.38;;;15.80;99.90;;;;;;5062567;28;20464;-64
2022/07/10 07:45:07;;;;;;;6.20;1.85;;;15.80;99.90;;;;;;5061606;28;20347;-62
2022/07/10 07:47:49;;;;;;;5.22;1.05;;;15.80;99.90;;;;;;5066250;28;20115;-62
2022/07/10 07:50:17;;;;;;;3.22;1.10;;;15.90;99.90;;;;;;5062747;28;20391;-62
2022/07/10 07:52:44;;;;;;;8.07;1.50;;;16.00;99.90;;;;;;5063070;28;20383;-63
2022/07/10 07:55:10;;;;;;;6.10;1.67;;;16.10;99.90;;;;;;5056793;28;20053;-62
2022/07/10 07:57:36;;;;;;;5.13;1.58;;;16.20;99.90;;;;;;5064175;28;20037;-62
2022/07/10 08:00:07;;;;;;;7.20;2.00;;;16.20;99.90;;;;;;5060934;28;20393;-62
2022/07/10 08:02:34;;;;;;;6.07;1.50;;;16.20;99.90;;;;;;5063018;28;20564;-62
2022/07/10 08:05:01;;;;;;;4.57;1.52;;;16.20;99.90;;;;;;5062427;28;20045;-62
2022/07/10 08:07:34;;;;;;;7.07;1.65;;;16.10;99.90;;;;;;5072412;28;20131;-63
2022/07/10 08:10:00;;;;;;;4.40;1.40;;;16.10;99.90;;;;;;5064683;28;20123;-62
2022/07/10 08:12:25;;;;;;;6.60;1.38;;;16.10;99.90;;;;;;5064447;28;20171;-63
2022/07/10 08:14:51;;;;;;;6.50;1.33;;;16.00;99.90;;;;;;5067661;28;20048;-64
2022/07/10 08:17:17;;;;;;;5.78;1.30;;;16.00;99.90;;;;;;5065036;28;20046;-64
2022/07/10 08:19:42;;;;;;;3.78;1.40;;;16.10;99.90;;;;;;5065411;28;20426;-63
2022/07/10 08:22:08;;;;;;;5.07;1.52;;;16.10;99.90;;;;;;5059665;28;20120;-65
2022/07/10 08:24:34;;;;;;;5.10;1.40;;;16.20;99.90;;;;;;5057072;28;20040;-63
2022/07/10 08:26:59;;;;;;;6.13;1.60;;;16.20;99.90;;;;;;5062585;28;20153;-64
2022/07/10 08:29:25;;;;;;;4.10;1.02;;;16.30;99.90;;;;;;5062349;28;20040;-65
2022/07/10 08:31:51;;;;;;;5.35;1.30;;;16.40;99.90;;;;;;5063222;28;20043;-63
2022/07/10 08:34:16;;;;;;;6.35;1.20;;;16.50;99.90;;;;;;5061922;28;20048;-67
2022/07/10 08:36:42;;;;;;;4.20;1.10;;;16.50;99.90;;;;;;5057917;28;20091;-64
2022/07/10 08:39:08;;;;;;;3.92;1.10;;;16.60;99.90;;;;;;5061241;28;20044;-62
2022/07/10 08:41:36;;;;;;;4.80;1.10;;;16.70;99.90;;;;;;5056454;28;20064;-64
2022/07/10 08:44:02;;;;;;;4.75;1.33;;;16.70;99.90;;;;;;5062217;28;20534;-62
2022/07/10 08:46:30;;;;;;;2.15;0.95;;;16.70;99.90;;;;;;5063000;28;20139;-65
2022/07/10 08:48:59;;;;;;;6.18;1.10;;;16.90;99.90;;;;;;5069638;28;20054;-62
2022/07/10 08:51:37;;;;;;;2.70;1.17;;;17.10;99.90;;;;;;5052448;28;20131;-64
2022/07/10 08:54:05;;;;;;;3.42;1.45;;;17.30;99.90;;;;;;5060140;28;20071;-64
2022/07/10 08:56:31;;;;;;;4.40;0.90;;;17.50;99.90;;;;;;5057160;28;20048;-61
2022/07/10 08:58:59;;;;;;;6.30;1.20;;;17.70;99.90;;;;;;5055477;28;20142;-62
2022/07/10 09:01:24;;;;;;;3.90;1.13;;;17.70;99.90;;;;;;5065141;28;20402;-63
2022/07/10 09:03:50;;;;;;;3.78;1.25;;;17.70;99.90;;;;;;5051196;28;20140;-62
2022/07/10 09:06:16;;;;;;;3.13;1.08;;;17.70;99.90;;;;;;5053409;28;20103;-62
2022/07/10 09:09:05;;;;;;;2.92;1.00;;;17.60;99.90;;;;;;5051031;28;20041;-63
2022/07/10 09:11:33;;;;;;;4.60;1.20;;;17.60;99.90;;;;;;5052084;28;20366;-61
2022/07/10 09:14:08;;;;;;;5.50;1.25;;;17.60;99.90;;;;;;5058600;28;20105;-62
2022/07/10 09:16:39;;;;;;;2.47;1.10;;;17.70;99.90;;;;;;5068399;28;20105;-62
2022/07/10 09:19:17;;;;;;;2.45;0.90;;;17.80;99.90;;;;;;5065187;28;20055;-63
2022/07/10 09:21:43;;;;;;;4.15;1.30;;;17.90;99.90;;;;;;5064940;28;20047;-63
2022/07/10 09:24:09;;;;;;;3.42;1.13;;;17.90;99.90;;;;;;5068748;28;20079;-62
2022/07/10 09:26:40;;;;;;;2.67;1.13;;;17.90;99.90;;;;;;5069353;28;20122;-62
2022/07/10 09:29:10;;;;;;;7.93;1.67;;;18.00;99.90;;;;;;5062761;28;20060;-62
2022/07/10 09:31:55;;;;;;;6.10;1.30;;;17.90;99.90;;;;;;5072801;28;20044;-62
2022/07/10 09:34:36;;;;;;;4.30;1.20;;;17.90;99.90;;;;;;5054191;28;20041;-63
2022/07/10 09:37:22;;;;;;;3.22;1.20;;;17.90;99.90;;;;;;5059335;28;20072;-63
2022/07/10 09:40:05;;;;;;;3.17;0.90;;;17.80;99.90;;;;;;5054826;28;20645;-62
2022/07/10 09:42:36;;;;;;;4.03;1.20;;;17.70;99.90;;;;;;5055279;28;20060;-62
2022/07/10 09:45:13;;;;;;;4.97;1.33;;;17.60;99.90;;;;;;5052590;28;20498;-62
2022/07/10 09:47:39;;;;;;;7.28;1.45;;;17.50;99.90;;;;;;5055799;28;20060;-62
2022/07/10 09:50:30;;;;;;;5.70;1.67;;;17.40;99.90;;;;;;5060744;28;20056;-62
2022/07/10 09:53:00;;;;;;;6.28;1.60;;;17.40;99.90;;;;;;5050653;28;20064;-64
2022/07/10 09:55:29;;;;;;;3.63;1.40;;;17.20;99.90;;;;;;5063482;28;20133;-64
2022/07/10 09:58:06;;;;;;;5.78;1.90;;;17.00;99.90;;;;;;5040066;28;20057;-63
2022/07/10 10:00:42;;;;;;;4.28;1.50;;;16.90;99.90;;;;;;5059544;28;20149;-64
2022/07/10 10:03:09;;;;;;;4.00;1.40;;;16.90;99.90;;;;;;5055267;28;20134;-63
2022/07/10 10:06:23;;;;;;;4.07;1.33;;;16.70;99.90;;;;;;5056335;28;20052;-63
2022/07/10 10:09:05;;;;;;;4.20;1.40;;;16.80;99.90;;;;;;5043172;28;20119;-63
2022/07/10 10:11:35;;;;;;;6.70;1.70;;;16.80;99.90;;;;;;5056210;28;20071;-67
2022/07/10 10:14:02;;;;;;;7.00;1.70;;;16.80;99.90;;;;;;5054760;28;20052;-62
2022/07/10 10:16:29;;;;;;;6.60;1.50;;;16.80;99.90;;;;;;5064051;28;20118;-63
2022/07/10 10:21:40;;;;;;;5.40;1.88;;;16.90;99.90;;;;;;5054154;28;20049;-63
2022/07/10 10:24:06;;;;;;;6.38;2.00;;;16.80;99.90;;;;;;5052992;28;20049;-63
2022/07/10 10:26:32;;;;;;;5.20;1.77;;;16.90;99.90;;;;;;5058793;28;20046;-67
2022/07/10 10:29:01;;;;;;;6.43;2.03;;;16.90;99.90;;;;;;5053828;28;20056;-63
2022/07/10 10:31:28;;;;;;;11.63;2.30;;;17.10;99.90;;;;;;5048469;28;20057;-62
2022/07/10 10:33:56;;;;;;;11.10;2.08;;;17.10;99.90;;;;;;5064717;28;20481;-64
2022/07/10 10:36:37;;;;;;;9.13;2.20;;;17.20;99.90;;;;;;5072612;28;20040;-62
2022/07/10 10:39:19;;;;;;;12.48;2.25;;;17.20;99.90;;;;;;5070986;28;20060;-63
2022/07/10 10:41:53;;;;;;;5.70;2.10;;;17.20;99.90;;;;;;5039566;28;20390;-61
2022/07/10 10:44:23;;;;;;;8.10;2.20;;;17.20;99.90;;;;;;5064033;28;20060;-63
2022/07/10 10:46:59;;;;;;;6.35;1.90;;;17.40;99.90;;;;;;5072245;28;20105;-63
2022/07/10 10:49:25;;;;;;;8.65;2.20;;;17.60;99.90;;;;;;5072111;28;20082;-64
2022/07/10 10:52:04;;;;;;;6.00;1.83;;;17.50;99.90;;;;;;5068163;28;20124;-64
2022/07/10 10:54:57;;;;;;;5.18;2.13;;;17.40;99.90;;;;;;5081960;28;20090;-65
2022/07/10 10:57:39;;;;;;;7.10;2.17;;;17.40;99.90;;;;;;5071259;28;20048;-62
2022/07/10 11:00:07;;;;;;;5.15;1.85;;;17.40;99.90;;;;;;5071868;28;20048;-64
2022/07/10 11:02:34;;;;;;;7.57;2.35;;;17.40;99.90;;;;;;5072107;28;20371;-63
2022/07/10 11:05:20;;;;;;;7.35;1.95;;;17.30;99.90;;;;;;5069137;28;20057;-63
2022/07/10 11:07:59;;;;;;;5.57;2.35;;;17.20;99.90;;;;;;5067672;28;20098;-63
2022/07/10 11:10:45;;;;;;;8.32;2.10;;;17.20;99.90;;;;;;5057939;28;20040;-63
2022/07/10 11:13:17;;;;;;;8.30;2.10;;;17.40;99.90;;;;;;5069729;28;20041;-63
2022/07/10 11:15:49;;;;;;;5.93;2.50;;;17.50;99.90;;;;;;5059336;28;20041;-64
2022/07/10 11:18:25;;;;;;;5.95;1.95;;;17.70;99.90;;;;;;5071951;28;20119;-64
2022/07/10 11:20:55;;;;;;;8.23;1.90;;;17.80;99.90;;;;;;5071605;28;20052;-64
2022/07/10 11:23:36;;;;;;;4.78;1.75;;;18.10;99.90;;;;;;5070433;28;20048;-64
2022/07/10 11:26:24;;;;;;;5.72;1.95;;;18.20;99.90;;;;;;5070660;28;20048;-63
2022/07/10 11:28:56;;;;;;;6.82;1.83;;;18.30;99.90;;;;;;5057027;28;20052;-63
2022/07/10 11:31:23;;;;;;;4.60;1.80;;;18.20;99.90;;;;;;5058227;28;20048;-62
2022/07/10 11:33:51;;;;;;;9.43;2.17;;;18.10;99.90;;;;;;5069925;28;20110;-62
2022/07/10 11:36:21;;;;;;;92.82;33.67;;;18.10;99.90;;;;;;5060280;28;20052;-64
2022/07/10 11:38:48;;;;;;;25.15;10.18;;;18.10;99.90;;;;;;5071278;28;20068;-64
2022/07/10 11:41:22;;;;;;;8.18;3.10;;;18.20;99.90;;;;;;5070185;28;20442;-63
2022/07/10 11:43:55;;;;;;;8.25;2.47;;;18.20;99.90;;;;;;5052918;28;20098;-62
2022/07/10 11:46:24;;;;;;;6.93;2.95;;;18.20;99.90;;;;;;5058076;28;20402;-63
2022/07/10 11:48:52;;;;;;;10.30;2.58;;;18.20;99.90;;;;;;5022541;28;20037;-63
2022/07/10 11:51:45;;;;;;;7.45;2.35;;;18.30;99.90;;;;;;5059041;28;20046;-64
2022/07/10 11:54:15;;;;;;;6.30;1.92;;;18.30;99.90;;;;;;5062901;28;20106;-63
2022/07/10 11:56:46;;;;;;;5.80;2.05;;;18.20;99.90;;;;;;5054726;28;20128;-64
2022/07/10 11:59:14;;;;;;;7.35;2.00;;;18.10;99.90;;;;;;5053256;28;20068;-64
2022/07/10 12:01:47;;;;;;;5.97;1.85;;;18.00;99.90;;;;;;5050291;28;20410;-64
2022/07/10 12:04:18;;;;;;;5.68;1.77;;;18.00;99.90;;;;;;5050068;28;20057;-63
2022/07/10 12:06:46;;;;;;;6.18;1.60;;;18.00;99.90;;;;;;5053542;28;20178;-64
2022/07/10 12:09:16;;;;;;;5.35;1.70;;;17.90;99.90;;;;;;5056890;28;20131;-64
2022/07/10 12:11:44;;;;;;;3.80;1.90;;;17.90;99.90;;;;;;5052727;28;20068;-65
2022/07/10 12:14:16;;;;;;;5.32;1.67;;;17.90;99.90;;;;;;5051793;28;20121;-63
2022/07/10 12:16:43;;;;;;;7.78;1.75;;;17.90;99.90;;;;;;5054255;28;20124;-64
2022/07/10 12:19:11;;;;;;;8.50;2.00;;;17.90;99.90;;;;;;5050191;28;20188;-64
2022/07/10 12:21:39;;;;;;;8.30;1.90;;;18.10;99.90;;;;;;5053142;28;20498;-65
2022/07/10 12:24:05;;;;;;;5.50;1.70;;;18.20;99.90;;;;;;5048950;28;20044;-64
2022/07/10 12:26:36;;;;;;;5.95;1.75;;;18.30;99.90;;;;;;5056559;28;20072;-64
2022/07/10 12:29:04;;;;;;;3.63;1.42;;;18.40;99.90;;;;;;5064475;28;20371;-63
2022/07/10 12:31:32;;;;;;;2.83;1.10;;;18.40;99.90;;;;;;5050586;28;20442;-62
2022/07/10 12:34:03;;;;;;;3.47;1.27;;;18.40;99.90;;;;;;5050045;28;20132;-62
2022/07/10 12:36:52;;;;;;;4.03;1.23;;;18.50;99.90;;;;;;5051116;28;20048;-62
2022/07/10 12:39:23;;;;;;;6.47;1.60;;;18.60;99.90;;;;;;5054873;28;20041;-63
2022/07/10 12:42:02;;;;;;;3.38;1.30;;;18.60;99.90;;;;;;5058164;28;20033;-63
2022/07/10 12:44:37;;;;;;;7.55;1.88;;;18.50;99.90;;;;;;5049825;28;20053;-65
2022/07/10 12:47:14;;;;;;;4.53;1.70;;;18.50;99.90;;;;;;5050027;28;20049;-64
2022/07/10 12:49:57;;;;;;;4.75;1.50;;;18.40;99.90;;;;;;5051811;28;20060;-64
2022/07/10 12:52:22;;;;;;;6.68;1.40;;;18.30;99.90;;;;;;5057474;28;20045;-64
2022/07/10 12:54:48;;;;;;;5.63;1.80;;;18.20;99.90;;;;;;5048982;28;20041;-64
2022/07/10 12:57:14;;;;;;;4.95;1.55;;;18.10;99.90;;;;;;5049929;28;20041;-64
2022/07/10 12:59:41;;;;;;;3.60;1.60;;;18.10;99.90;;;;;;5048771;28;20068;-64
2022/07/10 13:02:18;;;;;;;7.25;1.77;;;17.90;99.90;;;;;;5058093;28;20061;-63
2022/07/10 13:04:54;;;;;;;3.10;1.60;;;17.80;99.90;;;;;;5061923;28;20500;-63